Time;durP1;ratioP1;P1;durP2;ratioP2;P2;SDS_P1;SDS_P2;PMS_P1;PMS_P2;Temp;Humidity;BMP_temperature;BMP_pressure;BME280_temperature;BME280_humidity;BME280_pressure;Samples;Min_cycle;Max_cycle;Signal;HPM_P1;HPM_P2
2022/10/26 00:02:15;;;;;;;6.53;1.70;;;14.70;91.10;;;;;;5015754;28;20527;-68
2022/10/26 00:04:41;;;;;;;4.68;1.20;;;14.80;90.80;;;;;;5025234;28;20061;-68
2022/10/26 00:07:06;;;;;;;5.18;1.52;;;14.80;90.90;;;;;;5006144;28;20026;-68
2022/10/26 00:09:32;;;;;;;6.22;1.30;;;14.80;90.40;;;;;;5026208;28;20308;-68
2022/10/26 00:11:58;;;;;;;6.43;1.20;;;14.70;90.20;;;;;;5015586;28;20444;-68
2022/10/26 00:14:24;;;;;;;4.28;1.55;;;14.70;90.40;;;;;;5021779;28;20335;-68
2022/10/26 00:16:49;;;;;;;4.63;1.58;;;14.70;89.90;;;;;;5024287;28;20083;-69
2022/10/26 00:19:15;;;;;;;4.18;1.40;;;14.80;89.50;;;;;;5019282;28;20037;-68
2022/10/26 00:21:40;;;;;;;4.18;1.45;;;14.80;89.70;;;;;;5021200;28;20026;-68
2022/10/26 00:24:06;;;;;;;5.20;1.30;;;14.80;89.60;;;;;;5015154;28;20029;-68
2022/10/26 00:26:32;;;;;;;6.13;1.20;;;14.80;88.90;;;;;;5012693;28;20101;-68
2022/10/26 00:28:57;;;;;;;5.80;1.40;;;14.90;88.60;;;;;;5023603;28;20350;-68
2022/10/26 00:31:23;;;;;;;2.90;1.10;;;14.90;88.40;;;;;;5018913;28;21661;-68
2022/10/26 00:33:54;;;;;;;3.70;1.40;;;15.00;88.20;;;;;;5019428;28;20040;-68
2022/10/26 00:36:23;;;;;;;6.78;1.20;;;15.00;88.10;;;;;;5021785;28;20311;-68
2022/10/26 00:38:54;;;;;;;4.25;1.25;;;15.00;88.20;;;;;;5025754;28;20033;-68
2022/10/26 00:41:25;;;;;;;5.53;1.20;;;15.00;87.70;;;;;;5023451;28;20057;-68
2022/10/26 00:43:51;;;;;;;3.80;1.23;;;15.10;88.10;;;;;;5030962;28;20032;-68
2022/10/26 00:46:21;;;;;;;5.88;1.10;;;15.00;88.10;;;;;;5020227;28;20112;-67
2022/10/26 00:48:58;;;;;;;3.38;1.20;;;15.00;88.50;;;;;;5013778;28;20829;-67
2022/10/26 00:51:41;;;;;;;3.22;1.20;;;15.00;88.00;;;;;;5018785;28;20032;-67
2022/10/26 00:54:17;;;;;;;4.47;1.35;;;15.10;87.50;;;;;;5026845;28;20087;-67
2022/10/26 00:56:44;;;;;;;2.88;1.23;;;15.20;87.20;;;;;;5018705;28;20046;-67
2022/10/26 00:59:12;;;;;;;5.88;1.20;;;15.20;86.70;;;;;;5014283;28;20021;-69
2022/10/26 01:01:42;;;;;;;4.47;1.20;;;15.30;86.70;;;;;;5019639;28;20030;-68
2022/10/26 01:04:08;;;;;;;4.72;1.38;;;15.30;86.80;;;;;;5020991;28;20037;-68
2022/10/26 01:06:37;;;;;;;4.57;1.20;;;15.30;87.70;;;;;;5015715;28;20033;-68
2022/10/26 01:09:04;;;;;;;4.72;1.20;;;15.20;88.10;;;;;;5018684;28;20414;-68
2022/10/26 01:11:30;;;;;;;6.65;1.55;;;15.20;88.20;;;;;;5018057;28;20040;-68
2022/10/26 01:13:57;;;;;;;4.85;1.27;;;15.10;88.80;;;;;;5020308;28;20034;-68
2022/10/26 01:16:34;;;;;;;9.90;1.80;;;15.20;88.40;;;;;;5018665;28;20036;-68
2022/10/26 01:19:15;;;;;;;3.30;1.30;;;15.20;88.70;;;;;;5023994;28;20295;-68
2022/10/26 01:21:57;;;;;;;3.78;1.55;;;15.00;90.50;;;;;;5018285;28;20054;-68
2022/10/26 01:24:47;;;;;;;3.75;1.20;;;14.80;91.50;;;;;;5006024;28;20116;-67
2022/10/26 01:27:25;;;;;;;10.93;1.50;;;14.70;91.50;;;;;;5022820;28;20037;-67
2022/10/26 01:30:25;;;;;;;5.32;1.40;;;14.70;91.80;;;;;;5015568;28;20087;-68
2022/10/26 01:33:17;;;;;;;5.05;1.25;;;14.70;91.30;;;;;;5015158;28;20415;-68
2022/10/26 01:36:09;;;;;;;6.30;1.40;;;14.70;91.80;;;;;;5018090;28;20038;-68
2022/10/26 01:38:56;;;;;;;5.68;1.30;;;14.60;91.80;;;;;;5018397;28;20054;-68
2022/10/26 01:41:33;;;;;;;4.43;1.30;;;14.80;90.80;;;;;;5012871;28;20022;-68
2022/10/26 01:44:22;;;;;;;5.85;1.40;;;14.90;90.50;;;;;;5015687;28;20494;-68
2022/10/26 01:46:51;;;;;;;3.63;1.20;;;15.00;90.50;;;;;;5013768;28;20431;-68
2022/10/26 01:49:22;;;;;;;6.05;1.60;;;14.90;90.80;;;;;;5020692;28;20053;-68
2022/10/26 01:51:49;;;;;;;7.70;1.40;;;14.90;90.90;;;;;;5015894;28;20028;-68
2022/10/26 01:54:15;;;;;;;5.00;1.50;;;14.90;91.40;;;;;;5022418;28;20154;-68
2022/10/26 01:56:50;;;;;;;4.18;1.20;;;14.80;91.50;;;;;;5022565;28;20025;-68
2022/10/26 01:59:33;;;;;;;4.55;1.27;;;14.80;91.80;;;;;;5009169;28;20052;-69
2022/10/26 02:02:16;;;;;;;5.13;1.63;;;14.80;91.30;;;;;;5018971;28;20036;-69
2022/10/26 02:04:49;;;;;;;4.28;1.40;;;14.90;91.30;;;;;;5014155;28;20042;-68
2022/10/26 02:07:39;;;;;;;3.83;1.20;;;14.90;90.80;;;;;;5015544;28;20084;-68
2022/10/26 02:10:15;;;;;;;5.32;1.25;;;15.00;90.70;;;;;;5013530;28;20026;-68
2022/10/26 02:12:54;;;;;;;5.38;1.38;;;15.00;90.50;;;;;;5025080;28;20083;-69
2022/10/26 02:15:50;;;;;;;2.90;1.10;;;15.00;90.30;;;;;;5008419;28;20315;-68
2022/10/26 02:18:41;;;;;;;4.53;1.30;;;15.00;90.60;;;;;;5023296;28;20441;-68
2022/10/26 02:21:14;;;;;;;4.95;1.23;;;15.10;90.40;;;;;;5008992;28;20034;-68
2022/10/26 02:23:44;;;;;;;6.05;1.40;;;15.20;89.90;;;;;;5016467;28;20028;-69
2022/10/26 02:26:15;;;;;;;5.07;1.30;;;15.20;89.90;;;;;;5018729;28;20026;-69
2022/10/26 02:28:47;;;;;;;7.32;1.83;;;15.20;89.80;;;;;;5017583;28;20030;-68
2022/10/26 02:31:14;;;;;;;4.60;1.35;;;15.20;89.70;;;;;;5016824;28;20036;-68
2022/10/26 02:33:44;;;;;;;5.85;1.45;;;15.20;89.30;;;;;;5016954;28;20026;-68
2022/10/26 02:36:14;;;;;;;9.90;1.50;;;15.20;89.90;;;;;;5018560;28;20040;-68
2022/10/26 02:38:42;;;;;;;4.43;1.20;;;14.90;91.50;;;;;;5010015;28;20165;-69
2022/10/26 02:41:10;;;;;;;4.07;1.40;;;14.60;92.70;;;;;;5013134;28;20026;-69
2022/10/26 02:43:50;;;;;;;6.65;1.95;;;14.40;93.50;;;;;;5014815;28;20022;-69
2022/10/26 02:46:19;;;;;;;4.47;1.95;;;14.20;94.60;;;;;;5020011;28;20411;-68
2022/10/26 02:48:45;;;;;;;7.18;2.30;;;13.80;95.90;;;;;;5014444;28;20322;-68
2022/10/26 02:51:16;;;;;;;5.78;2.33;;;13.40;97.00;;;;;;5027334;28;20026;-68
2022/10/26 02:53:48;;;;;;;8.48;3.33;;;13.20;97.50;;;;;;5012518;28;20029;-68
2022/10/26 02:56:20;;;;;;;6.90;3.47;;;13.10;97.80;;;;;;5012309;28;20323;-68
2022/10/26 02:58:51;;;;;;;8.98;2.70;;;12.90;98.00;;;;;;5018920;28;20104;-69
2022/10/26 03:01:17;;;;;;;7.28;2.65;;;12.80;98.00;;;;;;5023330;28;20040;-69
2022/10/26 03:03:43;;;;;;;11.57;3.08;;;12.60;98.00;;;;;;5026392;28;20022;-68
2022/10/26 03:06:09;;;;;;;5.57;2.53;;;12.60;98.00;;;;;;5015864;28;20061;-68
2022/10/26 03:08:34;;;;;;;10.52;3.20;;;12.60;98.00;;;;;;5016645;28;20041;-68
2022/10/26 03:11:00;;;;;;;7.50;2.53;;;12.50;98.00;;;;;;5016656;28;20085;-68
2022/10/26 03:13:26;;;;;;;11.20;2.78;;;12.50;98.00;;;;;;5018021;28;20029;-68
2022/10/26 03:15:55;;;;;;;9.00;3.05;;;12.50;98.00;;;;;;5024689;28;20048;-68
2022/10/26 03:18:21;;;;;;;10.15;2.95;;;12.50;98.00;;;;;;5021670;28;20026;-68
2022/10/26 03:20:46;;;;;;;10.07;3.13;;;12.40;98.00;;;;;;5024031;28;20022;-68
2022/10/26 03:23:12;;;;;;;8.35;3.03;;;12.40;98.00;;;;;;5022257;28;20038;-68
2022/10/26 03:25:38;;;;;;;9.20;2.92;;;12.30;98.00;;;;;;5020864;28;20098;-68
2022/10/26 03:28:06;;;;;;;8.13;3.13;;;12.30;98.00;;;;;;5027258;28;20040;-68
2022/10/26 03:30:32;;;;;;;7.75;2.60;;;12.30;98.00;;;;;;5022831;28;20037;-69
2022/10/26 03:32:58;;;;;;;6.22;2.08;;;12.40;98.00;;;;;;5016376;28;20053;-68
2022/10/26 03:35:23;;;;;;;6.78;2.20;;;12.60;98.00;;;;;;5027886;28;20036;-68
2022/10/26 03:37:49;;;;;;;6.40;2.40;;;13.00;98.00;;;;;;5021289;28;20042;-68
2022/10/26 03:40:18;;;;;;;6.72;2.40;;;13.10;98.00;;;;;;5018982;28;20022;-69
2022/10/26 03:42:43;;;;;;;5.55;2.10;;;13.10;98.00;;;;;;5020461;28;20318;-67
2022/10/26 03:45:09;;;;;;;4.82;1.83;;;13.20;97.80;;;;;;5016025;28;20028;-67
2022/10/26 03:47:46;;;;;;;7.70;2.22;;;13.30;98.00;;;;;;5024814;28;20040;-67
2022/10/26 03:50:13;;;;;;;6.28;1.70;;;13.70;97.50;;;;;;5017608;28;20054;-68
2022/10/26 03:52:39;;;;;;;5.45;1.88;;;13.80;97.40;;;;;;5021876;28;20133;-70
2022/10/26 03:55:06;;;;;;;5.72;1.73;;;14.00;97.10;;;;;;5017997;28;20449;-70
2022/10/26 03:57:31;;;;;;;6.32;1.90;;;14.20;96.50;;;;;;5014572;28;20037;-70
2022/10/26 04:00:00;;;;;;;5.90;1.90;;;13.90;98.00;;;;;;5026347;28;20029;-69
2022/10/26 04:02:26;;;;;;;6.07;2.00;;;13.50;98.00;;;;;;5020351;28;20021;-69
2022/10/26 04:04:51;;;;;;;8.45;1.95;;;13.30;98.00;;;;;;5020295;28;20184;-69
2022/10/26 04:07:17;;;;;;;4.72;1.63;;;13.20;97.30;;;;;;5017360;28;20157;-68
2022/10/26 04:09:46;;;;;;;6.35;2.08;;;13.10;98.00;;;;;;5030782;28;20407;-68
2022/10/26 04:12:12;;;;;;;7.20;1.95;;;13.10;98.00;;;;;;5025193;28;20025;-68
2022/10/26 04:14:37;;;;;;;7.95;2.63;;;13.10;98.00;;;;;;5032098;28;20440;-69
2022/10/26 04:17:03;;;;;;;5.55;1.90;;;13.20;98.00;;;;;;5016738;28;20337;-68
2022/10/26 04:19:28;;;;;;;7.78;2.50;;;13.30;98.00;;;;;;5014930;28;20422;-69
2022/10/26 04:21:54;;;;;;;7.28;1.85;;;13.50;98.00;;;;;;5028877;28;20030;-69
2022/10/26 04:24:20;;;;;;;5.97;1.90;;;13.60;98.00;;;;;;5018624;28;20635;-68
2022/10/26 04:26:48;;;;;;;6.22;2.10;;;13.70;98.00;;;;;;5028056;28;20037;-69
2022/10/26 04:29:14;;;;;;;7.63;1.73;;;13.80;98.00;;;;;;5021897;28;20292;-69
2022/10/26 04:31:40;;;;;;;5.53;2.00;;;13.80;98.00;;;;;;5030988;28;20109;-68
2022/10/26 04:34:06;;;;;;;11.23;3.70;;;13.70;98.00;;;;;;5017560;28;20022;-69
2022/10/26 04:36:33;;;;;;;11.45;1.73;;;13.60;98.00;;;;;;5019173;28;20100;-69
2022/10/26 04:38:59;;;;;;;5.65;1.80;;;13.60;98.00;;;;;;5018939;28;20057;-69
2022/10/26 04:41:24;;;;;;;7.80;2.45;;;13.60;98.00;;;;;;5025142;28;20049;-68
2022/10/26 04:43:50;;;;;;;7.10;2.05;;;13.70;98.00;;;;;;5029055;28;20430;-69
2022/10/26 04:46:16;;;;;;;6.75;1.75;;;13.80;98.00;;;;;;5023323;28;20057;-69
2022/10/26 04:48:41;;;;;;;4.70;1.95;;;13.80;98.00;;;;;;5023673;28;20029;-69
2022/10/26 04:51:07;;;;;;;7.75;2.10;;;13.70;98.00;;;;;;5027094;28;20060;-69
2022/10/26 04:53:33;;;;;;;6.82;1.92;;;13.70;98.00;;;;;;5024781;28;20112;-69
2022/10/26 04:56:00;;;;;;;8.68;1.90;;;13.70;98.00;;;;;;5028075;28;20070;-69
2022/10/26 04:58:27;;;;;;;8.60;2.03;;;13.70;98.00;;;;;;5020009;28;20044;-68
2022/10/26 05:00:53;;;;;;;7.95;1.98;;;13.70;98.00;;;;;;5020922;28;20026;-69
2022/10/26 05:03:18;;;;;;;6.07;2.03;;;13.70;98.00;;;;;;5026193;28;20330;-68
2022/10/26 05:05:44;;;;;;;9.90;2.00;;;13.70;98.00;;;;;;5023513;28;20053;-69
2022/10/26 05:08:09;;;;;;;10.52;1.92;;;13.70;98.00;;;;;;5023868;28;20036;-68
2022/10/26 05:10:35;;;;;;;11.93;2.22;;;13.70;98.00;;;;;;5012088;28;20101;-68
2022/10/26 05:13:02;;;;;;;7.43;2.30;;;13.70;98.00;;;;;;5024274;28;20056;-69
2022/10/26 05:15:28;;;;;;;7.88;1.75;;;13.70;98.00;;;;;;5037466;28;20056;-69
2022/10/26 05:18:04;;;;;;;10.07;2.50;;;13.70;98.00;;;;;;5017758;28;20026;-68
2022/10/26 05:20:32;;;;;;;6.28;2.20;;;13.80;98.00;;;;;;5024700;28;20025;-68
2022/10/26 05:23:00;;;;;;;6.03;2.42;;;14.00;98.00;;;;;;5033846;28;20033;-68
2022/10/26 05:25:30;;;;;;;9.05;2.28;;;14.20;98.00;;;;;;5033564;28;20017;-69
2022/10/26 05:28:00;;;;;;;8.45;2.58;;;14.30;98.00;;;;;;5023763;28;20037;-68
2022/10/26 05:30:27;;;;;;;9.50;2.38;;;14.40;98.00;;;;;;5035062;28;20055;-68
2022/10/26 05:32:57;;;;;;;5.97;1.90;;;14.50;97.80;;;;;;5033953;28;20044;-68
2022/10/26 05:35:24;;;;;;;8.90;2.75;;;14.50;97.60;;;;;;5019090;28;20104;-69
2022/10/26 05:37:50;;;;;;;5.57;2.05;;;14.50;97.70;;;;;;5013728;28;20042;-68
2022/10/26 05:40:16;;;;;;;8.32;2.45;;;14.50;97.70;;;;;;5016104;28;20030;-68
2022/10/26 05:42:42;;;;;;;11.50;2.58;;;14.50;97.70;;;;;;5019313;28;20030;-68
2022/10/26 05:45:09;;;;;;;7.35;2.28;;;14.50;97.80;;;;;;5029034;28;20029;-68
2022/10/26 05:47:42;;;;;;;8.73;2.22;;;14.60;97.70;;;;;;5029084;28;20029;-69
2022/10/26 05:50:09;;;;;;;7.30;2.00;;;14.50;97.60;;;;;;5031594;28;20418;-68
2022/10/26 05:52:39;;;;;;;8.00;2.50;;;14.60;97.80;;;;;;5016564;28;20029;-69
2022/10/26 05:55:07;;;;;;;10.45;2.55;;;14.60;97.40;;;;;;5029791;28;20025;-68
2022/10/26 05:57:33;;;;;;;8.35;2.40;;;14.70;97.70;;;;;;5018377;28;20052;-69
2022/10/26 06:00:02;;;;;;;7.65;2.20;;;14.70;97.20;;;;;;5018548;28;20379;-69
2022/10/26 06:02:40;;;;;;;13.02;3.25;;;14.80;97.30;;;;;;5027835;28;20393;-68
2022/10/26 06:05:09;;;;;;;9.60;2.40;;;14.90;97.00;;;;;;5017654;28;20469;-68
2022/10/26 06:07:36;;;;;;;9.57;2.65;;;15.00;96.60;;;;;;5014834;28;20037;-68
2022/10/26 06:10:04;;;;;;;8.43;2.42;;;15.10;96.50;;;;;;5022958;28;20025;-69
2022/10/26 06:12:30;;;;;;;8.93;2.13;;;15.10;96.60;;;;;;5023944;28;20026;-68
2022/10/26 06:14:56;;;;;;;10.13;2.53;;;15.20;95.90;;;;;;5020023;28;20426;-69
2022/10/26 06:18:04;;;;;;;6.80;2.90;;;15.30;95.30;;;;;;5023880;28;20034;-68
2022/10/26 06:20:46;;;;;;;6.15;2.08;;;15.30;95.50;;;;;;5013274;28;20445;-69
2022/10/26 06:23:32;;;;;;;8.70;2.25;;;15.20;95.60;;;;;;5022383;28;20086;-69
2022/10/26 06:26:08;;;;;;;9.32;2.40;;;15.20;96.10;;;;;;4995585;28;20070;-69
2022/10/26 06:28:59;;;;;;;8.65;2.42;;;15.10;96.20;;;;;;5015258;28;20026;-68
2022/10/26 06:31:26;;;;;;;10.40;2.50;;;15.00;96.50;;;;;;5016396;28;20071;-68
2022/10/26 06:33:57;;;;;;;11.20;2.53;;;15.00;96.70;;;;;;5030955;28;20354;-68
2022/10/26 06:36:29;;;;;;;8.90;2.95;;;15.00;96.60;;;;;;5031365;28;20049;-67
2022/10/26 06:39:06;;;;;;;14.55;2.70;;;15.00;96.70;;;;;;5014700;28;20057;-68
2022/10/26 06:41:35;;;;;;;9.88;2.47;;;14.80;97.40;;;;;;5016822;28;20296;-66
2022/10/26 06:44:03;;;;;;;6.70;2.20;;;14.80;97.40;;;;;;5026998;28;20033;-67
2022/10/26 06:47:02;;;;;;;5.90;1.85;;;14.90;97.60;;;;;;5033141;28;20064;-67
2022/10/26 06:49:36;;;;;;;7.47;2.45;;;15.00;96.70;;;;;;4990405;28;20446;-68
2022/10/26 06:52:12;;;;;;;15.57;4.05;;;15.20;96.80;;;;;;5015972;28;20626;-68
2022/10/26 06:54:53;;;;;;;9.70;2.80;;;15.30;95.90;;;;;;5025553;28;20026;-69
2022/10/26 06:57:21;;;;;;;8.15;2.33;;;15.60;95.30;;;;;;5028248;28;20034;-69
2022/10/26 07:00:01;;;;;;;8.73;2.60;;;15.70;94.60;;;;;;5015177;28;20322;-69
2022/10/26 07:02:27;;;;;;;14.23;2.38;;;15.90;94.00;;;;;;5015999;28;20101;-68
2022/10/26 07:04:56;;;;;;;9.27;2.75;;;16.00;93.80;;;;;;5015942;28;20094;-68
2022/10/26 07:07:29;;;;;;;6.65;2.40;;;16.10;93.70;;;;;;5015018;28;20058;-68
2022/10/26 07:09:55;;;;;;;8.67;2.53;;;16.10;94.00;;;;;;5014885;28;20027;-68
2022/10/26 07:12:21;;;;;;;11.50;2.20;;;16.20;93.00;;;;;;5015869;28;20056;-68
2022/10/26 07:14:47;;;;;;;10.13;2.00;;;16.30;92.70;;;;;;5016380;28;20034;-68
2022/10/26 07:17:12;;;;;;;10.48;2.40;;;16.30;92.70;;;;;;5033521;28;20030;-68
2022/10/26 07:19:39;;;;;;;15.38;2.88;;;16.40;92.80;;;;;;5015493;28;20374;-68
2022/10/26 07:22:05;;;;;;;8.20;2.22;;;16.30;92.90;;;;;;5015863;28;20022;-68
2022/10/26 07:24:31;;;;;;;16.17;2.53;;;16.30;93.10;;;;;;5014877;28;20323;-68
2022/10/26 07:26:57;;;;;;;8.32;2.58;;;16.30;93.10;;;;;;5015400;28;20025;-68
2022/10/26 07:29:24;;;;;;;7.80;2.28;;;16.40;93.00;;;;;;5014991;28;20025;-68
2022/10/26 07:31:50;;;;;;;11.00;2.58;;;16.40;92.40;;;;;;5015741;28;20054;-69
2022/10/26 07:34:16;;;;;;;11.45;2.90;;;16.50;92.00;;;;;;5015603;28;20045;-68
2022/10/26 07:36:42;;;;;;;10.27;2.67;;;16.60;92.40;;;;;;5015596;28;20041;-68
2022/10/26 07:39:07;;;;;;;11.30;2.92;;;16.60;92.10;;;;;;5013895;28;20137;-67
2022/10/26 07:41:33;;;;;;;6.75;2.30;;;16.70;91.50;;;;;;5014604;28;20029;-68
2022/10/26 07:43:59;;;;;;;8.35;2.80;;;16.80;92.00;;;;;;5015636;28;20033;-68
2022/10/26 07:46:25;;;;;;;6.75;2.30;;;16.90;92.70;;;;;;5015746;28;20022;-68
2022/10/26 07:48:51;;;;;;;7.03;2.55;;;17.00;90.80;;;;;;5014610;28;20427;-68
2022/10/26 07:51:17;;;;;;;10.45;2.80;;;17.20;91.50;;;;;;5015566;28;20048;-69
2022/10/26 07:53:46;;;;;;;9.65;2.60;;;17.30;90.70;;;;;;5015663;28;20455;-68
2022/10/26 07:56:14;;;;;;;11.20;2.60;;;17.80;89.90;;;;;;5014420;28;20026;-68
2022/10/26 07:58:40;;;;;;;7.57;2.22;;;18.90;87.30;;;;;;5013687;28;20038;-68
2022/10/26 08:01:11;;;;;;;8.23;2.30;;;20.10;84.20;;;;;;5016283;28;20045;-68
2022/10/26 08:03:37;;;;;;;8.63;2.30;;;21.00;81.20;;;;;;5018811;28;20361;-68
2022/10/26 08:06:03;;;;;;;7.55;2.50;;;21.70;79.00;;;;;;5019106;28;20018;-68
2022/10/26 08:08:30;;;;;;;13.40;3.08;;;21.30;78.70;;;;;;5017991;28;20121;-68
2022/10/26 08:10:57;;;;;;;9.02;2.45;;;20.30;81.00;;;;;;5017657;28;20097;-68
2022/10/26 08:13:23;;;;;;;8.20;2.45;;;19.40;82.40;;;;;;5018859;28;20084;-68
2022/10/26 08:15:48;;;;;;;10.65;2.42;;;18.60;84.40;;;;;;5018774;28;20407;-69
2022/10/26 08:18:14;;;;;;;13.45;2.70;;;18.20;85.40;;;;;;5018021;28;20034;-68
2022/10/26 08:20:40;;;;;;;10.15;2.83;;;18.10;86.00;;;;;;5017963;28;20021;-68
2022/10/26 08:23:07;;;;;;;12.20;2.50;;;18.20;86.70;;;;;;5018658;28;20102;-68
2022/10/26 08:25:33;;;;;;;12.75;2.80;;;18.40;86.60;;;;;;5017408;28;20030;-69
2022/10/26 08:28:02;;;;;;;11.80;3.05;;;18.50;86.30;;;;;;5017891;28;20037;-68
2022/10/26 08:30:32;;;;;;;8.38;2.50;;;18.60;86.70;;;;;;5018597;28;20378;-68
2022/10/26 08:33:03;;;;;;;11.90;3.35;;;18.50;86.90;;;;;;5018400;28;20368;-68
2022/10/26 08:35:29;;;;;;;10.90;2.85;;;18.50;87.80;;;;;;5017503;28;20362;-68
2022/10/26 08:37:55;;;;;;;11.82;2.50;;;18.40;87.20;;;;;;5017178;28;20482;-68
2022/10/26 08:40:27;;;;;;;9.05;2.50;;;18.30;87.10;;;;;;5016964;28;20026;-68
2022/10/26 08:43:19;;;;;;;12.60;3.10;;;18.20;87.50;;;;;;5018324;28;20029;-68
2022/10/26 08:46:15;;;;;;;12.95;3.00;;;18.40;87.80;;;;;;5015201;28;20109;-68
2022/10/26 08:48:49;;;;;;;14.18;3.20;;;18.70;87.80;;;;;;5017164;28;20375;-69
2022/10/26 08:51:23;;;;;;;12.10;4.07;;;20.30;83.50;;;;;;5018009;28;20386;-68
2022/10/26 08:53:51;;;;;;;;;;;20.80;81.80;;;;;;5018538;28;20029;-69
2022/10/26 08:56:18;;;;;;;10.90;3.33;;;21.30;80.20;;;;;;5016972;28;19909;-68
2022/10/26 08:59:08;;;;;;;9.98;2.90;;;21.50;79.90;;;;;;5017051;28;20038;-68
2022/10/26 09:01:33;;;;;;;10.80;2.65;;;21.00;79.20;;;;;;5013895;28;20437;-68
2022/10/26 09:04:01;;;;;;;16.13;4.25;;;20.50;81.00;;;;;;5017802;28;20101;-68
2022/10/26 09:06:50;;;;;;;11.93;4.13;;;20.10;82.40;;;;;;5016509;28;20076;-68
2022/10/26 09:09:28;;;;;;;14.52;4.28;;;19.50;83.10;;;;;;5017768;28;20414;-68
2022/10/26 09:12:16;;;;;;;8.02;2.90;;;18.90;85.20;;;;;;5017500;28;20053;-68
2022/10/26 09:14:59;;;;;;;11.23;3.90;;;18.60;86.50;;;;;;5016496;28;20136;-68
2022/10/26 09:17:57;;;;;;;8.52;3.08;;;18.30;86.90;;;;;;5017574;28;20018;-68
2022/10/26 09:20:40;;;;;;;7.78;2.88;;;17.90;88.20;;;;;;5012363;28;20034;-68
2022/10/26 09:23:15;;;;;;;13.55;2.65;;;17.70;89.20;;;;;;5017470;28;20029;-68
2022/10/26 09:25:41;;;;;;;8.02;2.63;;;17.80;88.70;;;;;;5015422;28;20033;-68
2022/10/26 09:28:16;;;;;;;8.35;2.40;;;17.90;88.70;;;;;;5017371;28;20030;-68
2022/10/26 09:30:44;;;;;;;9.38;2.75;;;18.00;89.50;;;;;;5017289;28;20026;-67
2022/10/26 09:33:23;;;;;;;9.63;2.65;;;18.00;88.90;;;;;;5017166;28;20087;-67
2022/10/26 09:36:01;;;;;;;11.10;2.53;;;17.90;88.90;;;;;;5014752;28;20121;-66
2022/10/26 09:38:33;;;;;;;8.70;2.20;;;17.80;89.00;;;;;;5017111;28;20042;-66
2022/10/26 09:41:13;;;;;;;8.57;3.10;;;17.70;88.90;;;;;;5016065;28;20029;-66
2022/10/26 09:43:46;;;;;;;10.13;2.83;;;17.80;89.70;;;;;;5017089;28;20022;-68
2022/10/26 09:46:20;;;;;;;9.43;2.67;;;18.00;89.70;;;;;;5015911;28;20041;-68
2022/10/26 09:48:52;;;;;;;8.95;2.70;;;18.10;88.80;;;;;;5016355;28;20069;-69
2022/10/26 09:51:18;;;;;;;10.57;2.65;;;18.10;88.40;;;;;;5017060;28;20034;-69
2022/10/26 09:53:46;;;;;;;9.43;2.70;;;18.10;88.90;;;;;;5017033;28;20045;-69
2022/10/26 09:56:13;;;;;;;9.93;2.20;;;18.20;87.80;;;;;;5014983;28;20021;-69
2022/10/26 09:58:45;;;;;;;11.18;2.80;;;18.30;87.80;;;;;;5016971;28;20376;-69
2022/10/26 10:01:34;;;;;;;9.65;2.97;;;18.30;87.20;;;;;;5016852;28;20014;-69
2022/10/26 10:04:15;;;;;;;8.98;2.25;;;18.40;88.00;;;;;;5014002;28;20034;-69
2022/10/26 10:06:46;;;;;;;11.57;2.28;;;18.90;86.40;;;;;;5015744;28;20021;-67
2022/10/26 10:09:20;;;;;;;8.38;2.67;;;19.90;84.20;;;;;;5015704;28;20036;-67
2022/10/26 10:11:53;;;;;;;10.98;2.10;;;20.60;81.80;;;;;;5015473;28;20109;-67
2022/10/26 10:14:28;;;;;;;6.95;2.17;;;20.90;80.80;;;;;;5016676;28;20426;-68
2022/10/26 10:16:56;;;;;;;9.75;2.50;;;21.40;80.00;;;;;;5016667;28;20117;-68
2022/10/26 10:19:34;;;;;;;10.68;2.80;;;21.80;78.50;;;;;;5015628;28;20072;-68
2022/10/26 10:22:06;;;;;;;10.13;2.45;;;22.30;77.80;;;;;;5016469;28;20378;-68
2022/10/26 10:24:35;;;;;;;7.13;2.25;;;22.90;76.90;;;;;;5014810;28;20028;-67
2022/10/26 10:27:01;;;;;;;10.82;2.67;;;23.00;74.90;;;;;;5016295;28;20029;-67
2022/10/26 10:29:32;;;;;;;7.78;2.30;;;22.60;75.70;;;;;;5015524;28;20350;-69
2022/10/26 10:32:00;;;;;;;11.95;2.38;;;22.10;76.60;;;;;;5016395;28;20026;-68
2022/10/26 10:34:29;;;;;;;7.85;2.38;;;21.60;77.40;;;;;;5016202;28;20029;-68
2022/10/26 10:36:55;;;;;;;12.65;2.60;;;21.30;78.80;;;;;;5016119;28;20037;-68
2022/10/26 10:39:40;;;;;;;8.95;2.33;;;21.50;79.40;;;;;;5015213;28;20041;-69
2022/10/26 10:42:29;;;;;;;7.70;2.00;;;21.70;78.90;;;;;;5016167;28;20025;-68
2022/10/26 10:44:56;;;;;;;9.32;2.17;;;21.80;78.90;;;;;;5016160;28;20430;-68
2022/10/26 10:47:27;;;;;;;7.72;2.80;;;22.10;78.10;;;;;;5016296;28;20082;-68
2022/10/26 10:49:59;;;;;;;11.20;3.22;;;22.10;77.90;;;;;;5015338;28;20030;-68
2022/10/26 10:52:29;;;;;;;8.88;2.72;;;22.00;78.70;;;;;;5016063;28;20029;-68
2022/10/26 10:55:12;;;;;;;11.02;2.30;;;22.10;77.10;;;;;;5014030;28;20022;-68
2022/10/26 10:57:56;;;;;;;9.20;2.15;;;21.50;78.30;;;;;;5015970;28;20052;-68
2022/10/26 11:00:24;;;;;;;11.60;2.72;;;21.10;80.50;;;;;;5016074;28;20030;-69
2022/10/26 11:03:22;;;;;;;10.07;3.22;;;20.70;81.20;;;;;;5015094;28;20026;-68
2022/10/26 11:06:12;;;;;;;6.82;2.33;;;20.80;81.90;;;;;;4996709;28;20026;-68
2022/10/26 11:08:46;;;;;;;7.38;2.90;;;21.60;79.80;;;;;;5015951;28;20033;-68
2022/10/26 11:11:20;;;;;;;12.35;2.65;;;21.70;78.90;;;;;;5014800;28;20117;-68
2022/10/26 11:14:01;;;;;;;8.35;2.90;;;21.10;80.40;;;;;;5016024;28;20026;-68
2022/10/26 11:16:41;;;;;;;10.02;2.28;;;21.00;81.00;;;;;;5015230;28;20034;-68
2022/10/26 11:19:47;;;;;;;12.27;2.58;;;20.80;81.50;;;;;;5015865;28;20415;-68
2022/10/26 11:22:21;;;;;;;8.75;2.72;;;20.40;82.50;;;;;;4994372;28;20040;-68
2022/10/26 11:24:53;;;;;;;10.90;2.47;;;20.30;82.90;;;;;;5011269;28;20237;-68
2022/10/26 11:27:18;;;;;;;9.68;2.67;;;20.30;83.10;;;;;;5015086;28;20450;-68
2022/10/26 11:30:24;;;;;;;12.35;2.33;;;20.20;83.20;;;;;;5015831;28;20057;-68
2022/10/26 11:32:53;;;;;;;9.55;2.33;;;20.40;82.90;;;;;;5004001;28;20427;-68
2022/10/26 11:35:42;;;;;;;13.23;2.78;;;20.90;82.30;;;;;;5015639;28;20025;-68
2022/10/26 11:38:33;;;;;;;11.63;2.20;;;21.40;81.60;;;;;;5018440;28;20125;-68
2022/10/26 11:41:06;;;;;;;9.93;2.95;;;22.00;78.80;;;;;;5018290;28;20049;-68
2022/10/26 11:43:52;;;;;;;11.70;2.53;;;21.80;79.20;;;;;;5019481;28;20109;-68
2022/10/26 11:46:27;;;;;;;9.55;2.80;;;22.10;78.60;;;;;;5018670;28;20026;-69
2022/10/26 11:49:19;;;;;;;7.88;2.20;;;22.20;78.30;;;;;;5019273;28;20438;-68
2022/10/26 11:52:16;;;;;;;11.88;2.55;;;22.20;77.90;;;;;;5019169;28;20109;-68
2022/10/26 11:54:53;;;;;;;11.05;2.80;;;22.10;78.30;;;;;;5017866;28;20461;-68
2022/10/26 11:57:22;;;;;;;9.75;2.40;;;22.40;78.20;;;;;;5018342;28;20038;-68
2022/10/26 11:59:52;;;;;;;9.15;2.30;;;22.20;77.40;;;;;;5019036;28;20057;-68
2022/10/26 12:02:23;;;;;;;8.88;2.42;;;22.00;77.40;;;;;;5019070;28;20038;-68
2022/10/26 12:04:57;;;;;;;10.55;1.90;;;22.10;78.40;;;;;;5019054;28;20029;-68
2022/10/26 12:07:33;;;;;;;8.98;2.35;;;22.30;76.60;;;;;;5018095;28;20474;-68
2022/10/26 12:10:00;;;;;;;11.32;2.85;;;22.60;76.60;;;;;;5017660;28;20385;-68
2022/10/26 12:12:43;;;;;;;14.60;2.17;;;22.70;76.50;;;;;;5018915;28;20092;-68
2022/10/26 12:15:33;;;;;;;12.48;2.33;;;22.90;76.20;;;;;;5018702;28;20072;-68
2022/10/26 12:18:13;;;;;;;10.90;2.20;;;23.00;76.00;;;;;;5016562;28;20022;-68
2022/10/26 12:20:54;;;;;;;9.07;2.42;;;23.00;75.80;;;;;;4999216;28;20034;-68
2022/10/26 12:23:24;;;;;;;6.95;2.40;;;22.00;76.80;;;;;;4999072;28;20022;-68
2022/10/26 12:25:50;;;;;;;10.73;2.50;;;21.40;78.60;;;;;;4997836;28;20106;-67
2022/10/26 12:28:39;;;;;;;8.50;3.17;;;21.30;79.30;;;;;;4999825;28;20442;-67
2022/10/26 12:31:36;;;;;;;9.18;2.15;;;21.80;78.70;;;;;;5018572;28;20061;-67
2022/10/26 12:34:11;;;;;;;7.20;2.45;;;21.80;78.00;;;;;;5017861;28;20612;-66
2022/10/26 12:36:50;;;;;;;9.68;2.35;;;22.00;77.10;;;;;;5018211;28;20045;-67
2022/10/26 12:39:39;;;;;;;8.13;2.75;;;21.80;77.20;;;;;;5017324;28;20034;-68
2022/10/26 12:42:04;;;;;;;9.18;3.88;;;21.80;77.70;;;;;;5018316;28;20050;-68
2022/10/26 12:44:35;;;;;;;16.00;5.97;;;22.00;76.70;;;;;;5018443;28;20446;-68
2022/10/26 12:47:02;;;;;;;10.25;2.70;;;22.10;77.20;;;;;;5017775;28;20018;-68
2022/10/26 12:50:05;;;;;;;11.15;2.20;;;22.00;76.70;;;;;;5017059;28;20028;-68
2022/10/26 12:52:45;;;;;;;9.70;2.38;;;21.90;77.10;;;;;;5018210;28;20105;-68
2022/10/26 12:55:11;;;;;;;10.18;2.53;;;21.90;76.40;;;;;;5016828;28;20033;-68
2022/10/26 12:58:03;;;;;;;7.38;2.38;;;22.00;76.80;;;;;;5017778;28;20025;-68
2022/10/26 13:00:28;;;;;;;10.00;2.15;;;22.30;75.80;;;;;;5017140;28;20053;-68
2022/10/26 13:03:22;;;;;;;8.88;2.20;;;22.40;75.70;;;;;;5017998;28;20026;-68
2022/10/26 13:06:19;;;;;;;8.75;1.90;;;22.30;75.60;;;;;;5017839;28;20022;-68
2022/10/26 13:08:49;;;;;;;8.40;2.35;;;22.30;76.20;;;;;;5016948;28;20030;-68
2022/10/26 13:11:40;;;;;;;6.60;2.40;;;22.40;75.40;;;;;;5016507;28;20104;-68